Time;durP1;ratioP1;P1;durP2;ratioP2;P2;SDS_P1;SDS_P2;PMS_P1;PMS_P2;Temp;Humidity;BMP_temperature;BMP_pressure;BME280_temperature;BME280_humidity;BME280_pressure;Samples;Min_cycle;Max_cycle;Signal;HPM_P1;HPM_P2
2021/04/27 00:00:21;;;;;;;;;;;;;;;-2.95;100.00;101111.09;5091172;28;19932;-71
2021/04/27 00:02:48;;;;;;;;;;;;;;;-2.93;100.00;101108.41;5072388;28;19924;-71
2021/04/27 00:05:15;;;;;;;;;;;;;;;-3.00;100.00;101107.63;5090206;28;19924;-71
2021/04/27 00:07:42;;;;;;;;;;;;;;;-3.04;100.00;101100.63;5090945;28;19935;-71
2021/04/27 00:10:09;;;;;;;;;;;;;;;-3.12;100.00;101106.09;5090829;28;19924;-72
2021/04/27 00:12:35;;;;;;;;;;;;;;;-3.17;100.00;101099.97;5090838;28;19963;-71
2021/04/27 00:15:00;;;;;;;;;;;;;;;-3.20;100.00;101100.91;5072209;28;20180;-71
2021/04/27 00:17:27;;;;;;;;;;;;;;;-3.22;100.00;101102.72;5090724;28;19924;-71
2021/04/27 00:19:54;;;;;;;;;;;;;;;-3.20;100.00;101095.59;5090812;28;20407;-71
2021/04/27 00:22:20;;;;;;;;;;;;;;;-3.17;100.00;101102.63;5090852;28;19969;-71
2021/04/27 00:24:45;;;;;;;;;;;;;;;-3.20;100.00;101090.28;5090521;28;19935;-71
2021/04/27 00:27:11;;;;;;;;;;;;;;;-3.23;100.00;101095.66;5072400;28;19924;-71
2021/04/27 00:29:37;;;;;;;;;;;;;;;-3.24;100.00;101093.03;5091280;28;19931;-71
2021/04/27 00:32:03;;;;;;;;;;;;;;;-3.26;100.00;101090.41;5073078;28;19935;-71
2021/04/27 00:34:29;;;;;;;;;;;;;;;-3.30;100.00;101098.44;5071931;28;19928;-71
2021/04/27 00:36:56;;;;;;;;;;;;;;;-3.29;100.00;101093.09;5090683;28;19931;-70
2021/04/27 00:39:21;;;;;;;;;;;;;;;-3.34;100.00;101096.75;5090907;28;19928;-71
2021/04/27 00:41:47;;;;;;;;;;;;;;;-3.37;100.00;101092.38;5094262;28;20371;-71
2021/04/27 00:44:13;;;;;;;;;;;;;;;-3.43;100.00;101090.72;5094486;28;19967;-70
2021/04/27 00:46:39;;;;;;;;;;;;;;;-3.47;100.00;101083.69;5076159;28;19924;-70
2021/04/27 00:49:05;;;;;;;;;;;;;;;-3.49;100.00;101079.31;5094497;28;20019;-70
2021/04/27 00:51:32;;;;;;;;;;;;;;;-3.54;100.00;101087.34;5093841;28;19953;-70
2021/04/27 00:53:59;;;;;;;;;;;;;;;-3.55;100.00;101085.63;5094289;28;20016;-70
2021/04/27 00:56:25;;;;;;;;;;;;;;;-3.61;100.00;101081.25;5094100;28;19931;-70
2021/04/27 00:58:51;;;;;;;;;;;;;;;-3.63;100.00;101075.13;5094021;28;20335;-70
2021/04/27 01:01:17;;;;;;;;;;;;;;;-3.64;100.00;101083.97;5075850;28;19973;-70
2021/04/27 01:03:43;;;;;;;;;;;;;;;-3.65;100.00;101076.06;5093459;28;19924;-70
2021/04/27 01:06:09;;;;;;;;;;;;;;;-3.64;100.00;101076.03;5093191;28;20023;-70
2021/04/27 01:08:41;;;;;;;;;;;;;;;-3.66;100.00;101074.28;5075231;28;19947;-70
2021/04/27 01:11:15;;;;;;;;;;;;;;;-3.69;100.00;101080.53;5075824;28;19989;-71
2021/04/27 01:13:43;;;;;;;;;;;;;;;-3.73;100.00;101074.41;5075228;28;19930;-70
2021/04/27 01:16:10;;;;;;;;;;;;;;;-3.71;100.00;101077.91;5093235;28;19924;-70
2021/04/27 01:18:37;;;;;;;;;;;;;;;-3.74;100.00;101067.34;5075588;28;19931;-70
2021/04/27 01:21:04;;;;;;;;;;;;;;;-3.80;100.00;101069.22;5075269;28;19974;-70
2021/04/27 01:23:36;;;;;;;;;;;;;;;-3.82;100.00;101073.66;5075163;28;19931;-70
2021/04/27 01:26:03;;;;;;;;;;;;;;;-3.81;100.00;101075.41;5093088;28;19931;-70
2021/04/27 01:28:34;;;;;;;;;;;;;;;-3.85;100.00;101079.03;5075297;28;20025;-69
2021/04/27 01:31:01;;;;;;;;;;;;;;;-3.87;100.00;101071.97;5075149;28;20300;-70
2021/04/27 01:33:28;;;;;;;;;;;;;;;-3.94;100.00;101072.97;5058244;28;19924;-71
2021/04/27 01:35:55;;;;;;;;;;;;;;;-3.94;100.00;101069.44;5074924;28;19927;-71
2021/04/27 01:38:23;;;;;;;;;;;;;;;-3.95;100.00;101065.03;5074909;28;19924;-71
2021/04/27 01:40:50;;;;;;;;;;;;;;;-4.04;100.00;101074.00;5075127;28;19928;-71
2021/04/27 01:43:18;;;;;;;;;;;;;;;-4.04;100.00;101068.69;5092904;28;20406;-71
2021/04/27 01:45:46;;;;;;;;;;;;;;;-4.14;100.00;101064.44;5074371;28;20307;-71
2021/04/27 01:48:12;;;;;;;;;;;;;;;-4.23;100.00;101058.38;5058269;28;19977;-71
2021/04/27 01:50:40;;;;;;;;;;;;;;;-4.26;100.00;101065.47;5092937;28;19924;-70
2021/04/27 01:53:32;;;;;;;;;;;;;;;-4.31;100.00;101056.75;5091676;28;19924;-69
2021/04/27 01:55:57;;;;;;;;;;;;;;;-4.35;100.00;101058.56;5074472;28;19928;-69
2021/04/27 01:58:23;;;;;;;;;;;;;;;-4.28;100.00;101056.69;5074700;28;20395;-69
2021/04/27 02:00:50;;;;;;;;;;;;;;;-4.28;100.00;101060.19;5092438;28;19931;-70
2021/04/27 02:03:16;;;;;;;;;;;;;;;-4.26;100.00;101054.88;5073988;28;19928;-69
2021/04/27 02:06:17;;;;;;;;;;;;;;;-4.31;100.00;101057.59;5091921;28;20010;-69
2021/04/27 02:08:47;;;;;;;;;;;;;;;-4.36;100.00;101056.78;5074654;28;19924;-69
2021/04/27 02:11:14;;;;;;;;;;;;;;;-4.37;100.00;101057.69;5092580;28;20011;-68
2021/04/27 02:13:40;;;;;;;;;;;;;;;-4.35;100.00;101063.00;5074029;28;19935;-68
2021/04/27 02:16:09;;;;;;;;;;;;;;;-4.41;100.00;101055.97;5092182;28;19988;-67
2021/04/27 02:18:43;;;;;;;;;;;;;;;-4.47;100.00;101050.78;5092435;28;20329;-68
2021/04/27 02:21:13;;;;;;;;;;;;;;;-4.46;100.00;101048.09;5074108;28;19981;-68
2021/04/27 02:23:57;;;;;;;;;;;;;;;-4.44;100.00;101045.44;5092291;28;20362;-68
2021/04/27 02:26:28;;;;;;;;;;;;;;;-4.50;100.00;101038.44;5073748;28;20022;-68
2021/04/27 02:29:00;;;;;;;;;;;;;;;-4.56;100.00;101039.41;5074149;28;20208;-69
2021/04/27 02:31:29;;;;;;;;;;;;;;;-4.62;100.00;101042.13;5092223;28;19932;-68
2021/04/27 02:33:54;;;;;;;;;;;;;;;-4.62;100.00;101035.94;5091501;28;20383;-69
2021/04/27 02:36:21;;;;;;;;;;;;;;;-4.63;100.00;101040.38;5091895;28;20057;-68
2021/04/27 02:38:53;;;;;;;;;;;;;;;-4.66;100.00;101032.47;5073829;28;19928;-69
2021/04/27 02:41:20;;;;;;;;;;;;;;;-4.69;100.00;101043.09;5073851;28;19932;-69
2021/04/27 02:43:47;;;;;;;;;;;;;;;-4.67;100.00;101051.06;5073370;28;20388;-69
2021/04/27 02:46:13;;;;;;;;;;;;;;;-4.71;100.00;101044.91;5091816;28;19928;-69
2021/04/27 02:48:49;;;;;;;;;;;;;;;-4.75;100.00;101040.53;5091840;28;19956;-68
2021/04/27 02:51:20;;;;;;;;;;;;;;;-4.75;100.00;101045.84;5057087;28;19932;-69
2021/04/27 02:54:07;;;;;;;;;;;;;;;-4.79;100.00;101044.13;5073715;28;20357;-69
2021/04/27 02:56:35;;;;;;;;;;;;;;;-4.84;100.00;101040.66;5091300;28;19924;-68
2021/04/27 02:59:02;;;;;;;;;;;;;;;-4.85;100.00;101038.91;5073366;28;19959;-68
2021/04/27 03:01:28;;;;;;;;;;;;;;;-4.84;100.00;101040.66;5073451;28;20006;-68
2021/04/27 03:03:57;;;;;;;;;;;;;;;-4.88;100.00;101040.72;5072444;28;20375;-68
2021/04/27 03:06:30;;;;;;;;;;;;;;;-4.90;100.00;101028.38;5073073;28;20019;-68
2021/04/27 03:09:07;;;;;;;;;;;;;;;-4.94;100.00;101027.53;5073456;28;20007;-69
2021/04/27 03:11:36;;;;;;;;;;;;;;;-4.93;100.00;101037.25;5073355;28;20388;-69
2021/04/27 03:14:02;;;;;;;;;;;;;;;-4.95;100.00;101039.00;5072330;28;19981;-68
2021/04/27 03:16:27;;;;;;;;;;;;;;;-5.01;100.00;101031.16;5090309;28;19959;-68
2021/04/27 03:18:53;;;;;;;;;;;;;;;-4.99;100.00;101031.13;5073375;28;20391;-69
2021/04/27 03:21:22;;;;;;;;;;;;;;;-5.00;100.00;101038.19;5091272;28;19971;-68
2021/04/27 03:23:51;;;;;;;;;;;;;;;-5.00;100.00;101029.38;5073261;28;19966;-68
2021/04/27 03:26:17;;;;;;;;;;;;;;;-4.96;100.00;101033.75;5073011;28;20026;-69
2021/04/27 03:28:53;;;;;;;;;;;;;;;-4.98;100.00;101036.41;5073188;28;19967;-68
2021/04/27 03:31:20;;;;;;;;;;;;;;;-4.97;100.00;101026.69;5073167;28;19931;-69
2021/04/27 03:33:46;;;;;;;;;;;;;;;-4.97;100.00;101031.97;5071843;28;20396;-69
2021/04/27 03:36:12;;;;;;;;;;;;;;;-4.99;100.00;101036.44;5072474;28;20019;-68
2021/04/27 03:38:40;;;;;;;;;;;;;;;-5.07;100.00;101031.22;5072828;28;20402;-68
2021/04/27 03:41:06;;;;;;;;;;;;;;;-5.12;100.00;101023.31;5073288;28;19924;-68
2021/04/27 03:43:34;;;;;;;;;;;;;;;-5.09;100.00;101027.69;5072913;28;20287;-66
2021/04/27 03:46:00;;;;;;;;;;;;;;;-5.06;100.00;101022.41;5072911;28;20435;-70
2021/04/27 03:48:26;;;;;;;;;;;;;;;-5.06;100.00;101019.75;5073067;28;20485;-68
2021/04/27 03:50:56;;;;;;;;;;;;;;;-5.07;100.00;101024.16;5091074;28;19936;-69
2021/04/27 03:53:41;;;;;;;;;;;;;;;-5.11;100.00;101022.44;5090596;28;19924;-70
2021/04/27 03:56:14;;;;;;;;;;;;;;;-5.11;100.00;101019.78;5072774;28;20455;-66
2021/04/27 03:58:40;;;;;;;;;;;;;;;-5.03;100.00;101027.63;5091026;28;19931;-70
2021/04/27 04:01:06;;;;;;;;;;;;;;;-5.03;100.00;101029.44;5091225;28;19959;-70
2021/04/27 04:03:32;;;;;;;;;;;;;;;-4.99;100.00;101029.34;5055473;28;19924;-66
2021/04/27 04:05:58;;;;;;;;;;;;;;;-4.96;100.00;101034.59;5072363;28;19935;-68
2021/04/27 04:08:51;;;;;;;;;;;;;;;-4.91;100.00;101030.13;5066949;28;20414;-66
2021/04/27 04:11:20;;;;;;;;;;;;;;;-4.86;100.00;101030.09;5072076;28;21182;-69
2021/04/27 04:13:46;;;;;;;;;;;;;;;-4.81;100.00;101030.00;5072920;28;19971;-71
2021/04/27 04:16:12;;;;;;;;;;;;;;;-4.73;100.00;101036.09;5058396;28;19931;-67
2021/04/27 04:18:38;;;;;;;;;;;;;;;-4.66;100.00;101048.38;5094840;28;19998;-67
2021/04/27 04:21:04;;;;;;;;;;;;;;;-4.57;100.00;101036.75;5094910;28;19967;-67
2021/04/27 04:23:50;;;;;;;;;;;;;;;-4.46;100.00;101036.59;5076413;28;19965;-67
2021/04/27 04:26:17;;;;;;;;;;;;;;;-4.36;100.00;101038.25;5094181;28;19963;-70
2021/04/27 04:28:55;;;;;;;;;;;;;;;-4.33;100.00;101040.84;5076541;28;19974;-71
2021/04/27 04:31:21;;;;;;;;;;;;;;;-4.29;100.00;101044.31;5093780;28;19925;-71
2021/04/27 04:34:06;;;;;;;;;;;;;;;-4.23;100.00;101046.91;5093483;28;19932;-66
2021/04/27 04:36:50;;;;;;;;;;;;;;;-4.07;100.00;101047.53;5093907;28;19931;-66
2021/04/27 04:39:35;;;;;;;;;;;;;;;-3.98;100.00;101041.19;5094177;28;19930;-66
2021/04/27 04:42:24;;;;;;;;;;;;;;;-3.89;100.00;101041.06;5094079;28;19930;-67
2021/04/27 04:45:10;;;;;;;;;;;;;;;-3.78;100.00;101043.53;5093771;28;20355;-68
2021/04/27 04:47:54;;;;;;;;;;;;;;;-3.62;100.00;101042.38;5093719;28;19932;-68
2021/04/27 04:50:39;;;;;;;;;;;;;;;-3.47;100.00;101038.56;5093634;28;19943;-69
2021/04/27 04:53:28;;;;;;;;;;;;;;;-3.32;100.00;101034.75;5082736;28;20387;-69
2021/04/27 04:55:54;;;;;;;;;;;;;;;-3.19;100.00;101043.38;5075647;28;19934;-69
2021/04/27 04:58:25;;;;;;;;;;;;;;;-3.05;100.00;101040.44;5070790;28;20335;-69
2021/04/27 05:00:55;;;;;;;;;;;;;;;-2.91;100.00;101035.72;5055695;28;19938;-69
2021/04/27 05:03:41;;;;;;;;;;;;;;;-2.73;100.00;101037.13;5088583;28;19980;-70
2021/04/27 05:06:27;;;;;;;;;;;;;;;-2.56;100.00;101034.09;5093003;28;19931;-69
2021/04/27 05:09:12;;;;;;;;;;;;;;;-2.33;100.00;101031.84;5093422;28;20345;-69
2021/04/27 05:11:49;;;;;;;;;;;;;;;-2.16;100.00;101032.34;5075572;28;19924;-70
2021/04/27 05:14:31;;;;;;;;;;;;;;;-1.96;100.00;101031.84;5093158;28;20339;-71
2021/04/27 05:16:57;;;;;;;;;;;;;;;-1.75;100.00;101042.88;5093341;28;19928;-72
2021/04/27 05:19:23;;;;;;;;;;;;;;;-1.57;100.00;101034.41;5092815;28;20280;-71
2021/04/27 05:21:49;;;;;;;;;;;;;;;-1.35;100.00;101034.75;5092569;28;19931;-71
2021/04/27 05:24:15;;;;;;;;;;;;;;;-1.09;100.00;101034.94;5074886;28;19931;-67
2021/04/27 05:26:41;;;;;;;;;;;;;;;-0.89;100.00;101035.25;5073322;28;20000;-66
2021/04/27 05:29:09;;;;;;;;;;;;;;;-0.60;100.00;101029.97;5074822;28;19924;-66
2021/04/27 05:31:36;;;;;;;;;;;;;;;-0.19;100.00;101031.38;5088103;28;20018;-66
2021/04/27 05:34:02;;;;;;;;;;;;;;;0.26;100.00;101037.06;5080888;28;19934;-67
2021/04/27 05:36:28;;;;;;;;;;;;;;;0.92;100.00;101031.22;5087356;28;20027;-67
2021/04/27 05:38:53;;;;;;;;;;;;;;;1.57;100.00;101029.69;5086624;28;19976;-65
2021/04/27 05:41:19;;;;;;;;;;;;;;;2.33;100.00;101032.00;5082718;28;19932;-65
2021/04/27 05:43:45;;;;;;;;;;;;;;;3.04;100.00;101023.56;5073725;28;19924;-66
2021/04/27 05:46:11;;;;;;;;;;;;;;;3.74;100.00;101029.31;5092847;28;19930;-66
2021/04/27 05:48:38;;;;;;;;;;;;;;;4.17;95.79;101021.81;5090434;28;20002;-66
2021/04/27 05:51:04;;;;;;;;;;;;;;;4.64;92.41;101031.13;5090221;28;20299;-67
2021/04/27 05:53:30;;;;;;;;;;;;;;;5.16;84.63;101023.97;5088013;28;19977;-66
2021/04/27 05:55:55;;;;;;;;;;;;;;;5.51;80.24;101021.16;5092206;28;19975;-66
2021/04/27 05:58:21;;;;;;;;;;;;;;;5.94;74.65;101021.41;5092800;28;19924;-67
2021/04/27 06:00:47;;;;;;;;;;;;;;;6.51;69.50;101025.38;5091769;28;19924;-67
2021/04/27 06:03:13;;;;;;;;;;;;;;;6.88;64.20;101017.75;5091510;28;19935;-69
2021/04/27 06:05:40;;;;;;;;;;;;;;;7.21;61.14;101011.22;5091504;28;19924;-70
2021/04/27 06:08:05;;;;;;;;;;;;;;;7.17;61.39;101010.53;5092218;28;19936;-69
2021/04/27 06:10:31;;;;;;;;;;;;;;;7.40;60.94;101013.63;5092257;28;19931;-69
2021/04/27 06:12:57;;;;;;;;;;;;;;;7.47;59.73;101009.59;5060268;28;19928;-69
2021/04/27 06:15:23;;;;;;;;;;;;;;;7.72;61.93;101008.00;5079338;28;19924;-69
2021/04/27 06:17:49;;;;;;;;;;;;;;;8.07;60.17;101007.56;5092207;28;20015;-69
2021/04/27 06:20:15;;;;;;;;;;;;;;;8.48;56.22;101012.03;5091510;28;20390;-69
2021/04/27 06:22:42;;;;;;;;;;;;;;;9.01;54.41;101008.44;5091550;28;19931;-69
2021/04/27 06:25:08;;;;;;;;;;;;;;;9.23;53.19;101012.34;5073681;28;19947;-66
2021/04/27 06:27:34;;;;;;;;;;;;;;;9.48;51.50;101003.31;5074053;28;19969;-66
2021/04/27 06:30:00;;;;;;;;;;;;;;;9.51;49.96;101009.41;5091552;28;19934;-68
2021/04/27 06:32:26;;;;;;;;;;;;;;;9.16;49.93;101006.50;5091765;28;19928;-65
2021/04/27 06:34:52;;;;;;;;;;;;;;;9.26;49.07;101013.00;5072604;28;19932;-66
2021/04/27 06:37:18;;;;;;;;;;;;;;;9.18;49.19;101010.81;5091430;28;19924;-67
2021/04/27 06:39:45;;;;;;;;;;;;;;;9.30;49.69;101013.63;5091388;28;19931;-66
2021/04/27 06:42:10;;;;;;;;;;;;;;;9.70;48.87;101013.44;5090712;28;20319;-67
2021/04/27 06:44:37;;;;;;;;;;;;;;;10.27;47.14;101014.66;5089443;28;19928;-70
2021/04/27 06:47:03;;;;;;;;;;;;;;;10.98;46.17;101011.13;5076199;28;19925;-70
2021/04/27 06:49:29;;;;;;;;;;;;;;;10.45;43.86;101019.72;5086315;28;19970;-70
2021/04/27 06:51:55;;;;;;;;;;;;;;;10.75;44.01;101024.66;5090994;28;19924;-70
2021/04/27 06:54:21;;;;;;;;;;;;;;;10.96;42.64;101010.41;5091211;28;19924;-70
2021/04/27 06:56:47;;;;;;;;;;;;;;;11.03;41.73;101011.63;5085011;28;19928;-70
2021/04/27 06:59:15;;;;;;;;;;;;;;;11.26;41.03;101007.09;5089074;28;19931;-71
2021/04/27 07:01:41;;;;;;;;;;;;;;;11.72;41.50;101007.97;5090582;28;19924;-70
2021/04/27 07:04:07;;;;;;;;;;;;;;;11.53;40.30;101006.75;5090802;28;19974;-70
2021/04/27 07:06:32;;;;;;;;;;;;;;;12.08;41.58;101002.34;5091608;28;19950;-70
2021/04/27 07:08:58;;;;;;;;;;;;;;;12.22;39.33;101002.91;5072676;28;19935;-70
2021/04/27 07:11:24;;;;;;;;;;;;;;;12.27;38.17;100998.97;5091344;28;19924;-71
2021/04/27 07:13:51;;;;;;;;;;;;;;;12.23;38.89;101004.66;5090234;28;19932;-70
2021/04/27 07:16:17;;;;;;;;;;;;;;;12.72;37.95;101006.94;5090764;28;20418;-70
2021/04/27 07:18:43;;;;;;;;;;;;;;;12.51;37.05;101012.38;5091250;28;20434;-70
2021/04/27 07:21:09;;;;;;;;;;;;;;;12.40;37.75;101007.84;5091284;28;19924;-71
2021/04/27 07:23:35;;;;;;;;;;;;;;;12.90;37.96;101002.59;5089754;28;19978;-70
2021/04/27 07:26:01;;;;;;;;;;;;;;;13.08;35.87;101004.75;5075932;28;20019;-71
2021/04/27 07:28:27;;;;;;;;;;;;;;;12.92;34.89;100996.16;5090319;28;19935;-71
2021/04/27 07:30:53;;;;;;;;;;;;;;;13.19;33.84;101003.81;5090738;28;19969;-70
2021/04/27 07:33:19;;;;;;;;;;;;;;;13.43;33.32;101005.38;5090700;28;19975;-70
2021/04/27 07:35:45;;;;;;;;;;;;;;;13.11;35.01;100995.41;5090651;28;19924;-71
2021/04/27 07:38:11;;;;;;;;;;;;;;;13.69;33.16;101000.31;5090883;28;19931;-70
2021/04/27 07:40:37;;;;;;;;;;;;;;;13.84;32.17;100998.06;5090895;28;19951;-70
2021/04/27 07:43:03;;;;;;;;;;;;;;;13.37;32.21;101001.34;5090847;28;20284;-70
2021/04/27 07:45:31;;;;;;;;;;;;;;;13.49;31.67;100992.03;5090970;28;20345;-70
2021/04/27 07:47:58;;;;;;;;;;;;;;;13.62;32.23;100997.28;5090224;28;20413;-70
2021/04/27 07:50:24;;;;;;;;;;;;;;;12.75;33.32;101000.34;5091893;28;20337;-70
2021/04/27 07:52:50;;;;;;;;;;;;;;;13.23;32.12;100997.94;5090219;28;19924;-70
2021/04/27 07:55:15;;;;;;;;;;;;;;;13.86;32.25;100991.47;5091999;28;19967;-70
2021/04/27 07:57:41;;;;;;;;;;;;;;;13.45;31.43;100993.31;5091346;28;19969;-66
2021/04/27 08:00:08;;;;;;;;;;;;;;;13.33;31.13;100991.66;5093538;28;19935;-69
2021/04/27 08:02:38;;;;;;;;;;;;;;;13.48;31.80;100984.91;5094639;28;19967;-67
2021/04/27 08:05:05;;;;;;;;;;;;;;;13.64;30.94;100978.03;5094218;28;19924;-70
2021/04/27 08:07:31;;;;;;;;;;;;;;;14.17;29.53;100979.59;5076052;28;19967;-71
2021/04/27 08:09:57;;;;;;;;;;;;;;;14.46;28.79;100982.34;5094673;28;20030;-70
2021/04/27 08:12:23;;;;;;;;;;;;;;;14.97;29.01;100990.38;5095058;28;19936;-70
2021/04/27 08:14:49;;;;;;;;;;;;;;;15.56;27.97;100978.22;5095001;28;19924;-71
2021/04/27 08:17:15;;;;;;;;;;;;;;;15.09;27.49;100989.19;5095138;28;19953;-71
2021/04/27 08:19:41;;;;;;;;;;;;;;;15.18;27.44;100976.53;5094073;28;19963;-71
2021/04/27 08:22:08;;;;;;;;;;;;;;;14.04;27.60;100979.84;5094770;28;20440;-71
2021/04/27 08:24:34;;;;;;;;;;;;;;;13.79;28.57;100986.69;5094050;28;20086;-66
2021/04/27 08:27:00;;;;;;;;;;;;;;;14.21;27.57;100981.88;5094041;28;20350;-71
2021/04/27 08:29:26;;;;;;;;;;;;;;;12.69;27.10;100980.84;5094243;28;20276;-71
2021/04/27 08:31:51;;;;;;;;;;;;;;;11.71;28.73;100977.16;5094086;28;19924;-70
2021/04/27 08:34:17;;;;;;;;;;;;;;;11.38;29.73;100978.94;5093373;28;20306;-71
2021/04/27 08:36:43;;;;;;;;;;;;;;;11.80;29.11;100983.72;5075846;28;19949;-71
2021/04/27 08:39:10;;;;;;;;;;;;;;;12.27;29.06;100977.19;5094553;28;19939;-71
2021/04/27 08:41:37;;;;;;;;;;;;;;;12.54;30.50;100984.88;5094242;28;19958;-71
2021/04/27 08:44:04;;;;;;;;;;;;;;;12.50;29.90;100976.09;5093145;28;20379;-69
2021/04/27 08:46:31;;;;;;;;;;;;;;;13.91;29.04;100977.41;5072406;28;20382;-69
2021/04/27 08:48:57;;;;;;;;;;;;;;;13.47;27.05;100969.53;5093766;28;20010;-69
2021/04/27 08:51:23;;;;;;;;;;;;;;;14.10;27.18;100971.13;5076055;28;19925;-69
2021/04/27 08:53:49;;;;;;;;;;;;;;;15.21;26.30;100963.41;5093812;28;19993;-70
2021/04/27 08:56:16;;;;;;;;;;;;;;;15.35;25.85;100950.25;5093510;28;20377;-70
2021/04/27 08:58:42;;;;;;;;;;;;;;;14.66;26.96;100966.00;5093667;28;19924;-70
2021/04/27 09:01:08;;;;;;;;;;;;;;;14.25;26.48;100963.38;5093414;28;19931;-66
2021/04/27 09:03:41;;;;;;;;;;;;;;;14.85;26.82;100968.66;5093111;28;19924;-66
2021/04/27 09:06:14;;;;;;;;;;;;;;;14.95;24.96;100959.59;5093672;28;20019;-66
2021/04/27 09:08:41;;;;;;;;;;;;;;;14.94;25.68;100956.00;5093307;28;19931;-66
2021/04/27 09:11:26;;;;;;;;;;;;;;;15.07;25.99;100958.41;5093865;28;20372;-66
2021/04/27 09:14:14;;;;;;;;;;;;;;;14.84;25.43;100941.50;5082522;28;20371;-66
2021/04/27 09:16:43;;;;;;;;;;;;;;;14.71;25.90;100947.25;5093851;28;19928;-65
2021/04/27 09:19:09;;;;;;;;;;;;;;;14.78;25.93;100948.41;5092684;28;19931;-65
2021/04/27 09:21:36;;;;;;;;;;;;;;;14.46;25.91;100951.44;5093546;28;19924;-65
2021/04/27 09:24:11;;;;;;;;;;;;;;;14.59;26.50;100942.94;5093106;28;20166;-66
2021/04/27 09:26:39;;;;;;;;;;;;;;;14.58;25.66;100931.16;5093323;28;19989;-67
2021/04/27 09:29:05;;;;;;;;;;;;;;;13.50;27.67;100928.34;5091234;28;19977;-65
2021/04/27 09:31:31;;;;;;;;;;;;;;;12.68;27.89;100929.19;5075300;28;19928;-70
2021/04/27 09:34:12;;;;;;;;;;;;;;;11.93;29.29;100929.13;5092267;28;19932;-70
2021/04/27 09:36:38;;;;;;;;;;;;;;;12.16;28.77;100932.69;5092611;28;19924;-70
2021/04/27 09:39:04;;;;;;;;;;;;;;;12.32;28.09;100934.97;5092777;28;19935;-71
2021/04/27 09:41:30;;;;;;;;;;;;;;;13.60;28.57;100920.16;5092391;28;19950;-71
2021/04/27 09:43:56;;;;;;;;;;;;;;;13.51;27.66;100926.50;5092817;28;19981;-70
2021/04/27 09:46:23;;;;;;;;;;;;;;;14.93;26.93;100923.38;5057828;28;20376;-70
2021/04/27 09:48:50;;;;;;;;;;;;;;;15.98;25.74;100916.66;5092756;28;20209;-71
2021/04/27 09:51:20;;;;;;;;;;;;;;;15.34;25.20;100911.09;5092783;28;19928;-70
2021/04/27 09:53:48;;;;;;;;;;;;;;;14.85;26.10;100905.81;5092343;28;19924;-71
2021/04/27 09:56:29;;;;;;;;;;;;;;;14.09;26.34;100914.78;5092790;28;19932;-70
2021/04/27 09:59:00;;;;;;;;;;;;;;;13.96;27.54;100906.88;5092710;28;19927;-70
2021/04/27 10:01:26;;;;;;;;;;;;;;;13.77;27.05;100905.00;5092159;28;20391;-70
2021/04/27 10:03:51;;;;;;;;;;;;;;;13.22;27.90;100906.25;5091553;28;19939;-70
2021/04/27 10:06:18;;;;;;;;;;;;;;;12.28;28.63;100900.84;5092491;28;19932;-70
2021/04/27 10:08:43;;;;;;;;;;;;;;;12.66;29.40;100898.53;5092396;28;20348;-65
2021/04/27 10:11:09;;;;;;;;;;;;;;;13.36;28.00;100899.59;5073722;28;19974;-65
2021/04/27 10:13:35;;;;;;;;;;;;;;;13.24;27.57;100887.03;5073460;28;20022;-65
2021/04/27 10:16:02;;;;;;;;;;;;;;;12.51;28.59;100893.41;5091786;28;19936;-65
2021/04/27 10:18:30;;;;;;;;;;;;;;;12.37;29.23;100893.75;5092082;28;19966;-66
2021/04/27 10:20:58;;;;;;;;;;;;;;;13.62;28.43;100884.59;5091963;28;19924;-71
2021/04/27 10:23:24;;;;;;;;;;;;;;;14.79;29.21;100886.41;5073713;28;19971;-70
2021/04/27 10:25:52;;;;;;;;;;;;;;;15.19;26.56;100883.41;5091269;28;19924;-70
2021/04/27 10:28:17;;;;;;;;;;;;;;;14.66;26.32;100884.03;5090824;28;19963;-70
2021/04/27 10:30:44;;;;;;;;;;;;;;;14.07;27.20;100881.34;5055295;28;20452;-70
2021/04/27 10:33:13;;;;;;;;;;;;;;;14.90;26.60;100869.84;5091512;28;19928;-70
2021/04/27 10:35:40;;;;;;;;;;;;;;;16.04;27.97;100865.88;5090440;28;19956;-69
2021/04/27 10:38:08;;;;;;;;;;;;;;;16.30;26.51;100863.22;5091882;28;19942;-70
2021/04/27 10:40:48;;;;;;;;;;;;;;;15.26;24.81;100860.91;5091608;28;20326;-66
2021/04/27 10:43:31;;;;;;;;;;;;;;;13.28;26.96;100868.53;5071460;28;20011;-66
2021/04/27 10:45:58;;;;;;;;;;;;;;;13.48;26.83;100864.91;5091177;28;20433;-69
2021/04/27 10:48:25;;;;;;;;;;;;;;;14.40;26.35;100869.09;5072372;28;19932;-70
2021/04/27 10:50:51;;;;;;;;;;;;;;;15.41;27.17;100856.66;5090853;28;19924;-70
2021/04/27 10:53:30;;;;;;;;;;;;;;;15.73;24.84;100850.66;5091346;28;19928;-69
2021/04/27 10:55:57;;;;;;;;;;;;;;;16.39;24.36;100842.19;5091261;28;19928;-69
2021/04/27 10:58:38;;;;;;;;;;;;;;;15.07;25.65;100849.06;5091096;28;19931;-69
2021/04/27 11:01:16;;;;;;;;;;;;;;;15.17;25.86;100832.63;5070597;28;19925;-66
2021/04/27 11:03:49;;;;;;;;;;;;;;;14.76;24.25;100834.81;5070388;28;20383;-65
2021/04/27 11:06:15;;;;;;;;;;;;;;;14.45;25.50;100840.47;5071441;28;19964;-66
2021/04/27 11:08:48;;;;;;;;;;;;;;;13.94;27.00;100839.81;5090622;28;19967;-65
2021/04/27 11:11:22;;;;;;;;;;;;;;;14.89;24.81;100833.44;5073098;28;20369;-65
2021/04/27 11:13:49;;;;;;;;;;;;;;;15.16;24.87;100825.41;5089850;28;20375;-66
2021/04/27 11:16:25;;;;;;;;;;;;;;;15.54;24.61;100821.59;5090231;28;20276;-65
2021/04/27 11:18:52;;;;;;;;;;;;;;;15.08;25.49;100817.97;5090316;28;19964;-65
2021/04/27 11:21:18;;;;;;;;;;;;;;;14.90;25.76;100820.66;5091270;28;20333;-66
2021/04/27 11:23:46;;;;;;;;;;;;;;;14.64;26.77;100815.00;5088498;28;20038;-65
2021/04/27 11:26:31;;;;;;;;;;;;;;;14.18;26.39;100818.38;5089894;28;19947;-65
2021/04/27 11:28:57;;;;;;;;;;;;;;;14.41;26.38;100815.31;5072517;28;20326;-66
2021/04/27 11:31:23;;;;;;;;;;;;;;;13.61;26.56;100812.81;5091060;28;19930;-65
2021/04/27 11:33:57;;;;;;;;;;;;;;;14.50;27.39;100810.88;5089667;28;19924;-65
2021/04/27 11:36:33;;;;;;;;;;;;;;;14.76;27.35;100807.50;5071779;28;20383;-65
2021/04/27 11:38:59;;;;;;;;;;;;;;;15.01;25.21;100801.31;5090583;28;19928;-65
2021/04/27 11:41:25;;;;;;;;;;;;;;;14.72;25.44;100802.34;5090412;28;19939;-65
2021/04/27 11:44:00;;;;;;;;;;;;;;;14.66;25.83;100797.47;5072419;28;19930;-70
2021/04/27 11:46:26;;;;;;;;;;;;;;;14.87;25.26;100793.63;5090524;28;20292;-70
2021/04/27 11:48:52;;;;;;;;;;;;;;;14.68;25.38;100795.41;5090465;28;20024;-70
2021/04/27 11:51:21;;;;;;;;;;;;;;;15.00;25.38;100791.38;5090634;28;20418;-70
2021/04/27 11:53:59;;;;;;;;;;;;;;;15.33;25.08;100783.56;5071977;28;20228;-70
2021/04/27 11:56:24;;;;;;;;;;;;;;;15.32;25.14;100781.84;5089841;28;19924;-69
2021/04/27 11:58:50;;;;;;;;;;;;;;;16.40;25.60;100779.03;5090397;28;19924;-70
2021/04/27 12:01:21;;;;;;;;;;;;;;;15.08;23.89;100771.50;5090396;28;19924;-69
2021/04/27 12:03:48;;;;;;;;;;;;;;;14.83;24.77;100776.69;5089686;28;20034;-71
2021/04/27 12:06:16;;;;;;;;;;;;;;;15.23;25.48;100777.31;5089107;28;19931;-70
2021/04/27 12:08:44;;;;;;;;;;;;;;;14.76;25.20;100772.81;5089595;28;20016;-70
2021/04/27 12:11:15;;;;;;;;;;;;;;;15.22;24.51;100770.13;5072139;28;19924;-70
2021/04/27 12:13:45;;;;;;;;;;;;;;;16.15;24.21;100761.56;5071227;28;19924;-65
2021/04/27 12:16:12;;;;;;;;;;;;;;;16.32;24.34;100759.81;5090273;28;20002;-65
2021/04/27 12:18:48;;;;;;;;;;;;;;;16.19;24.25;100763.00;5089930;28;19924;-70
2021/04/27 12:21:24;;;;;;;;;;;;;;;16.71;24.78;100755.75;5087989;28;19989;-70
2021/04/27 12:24:03;;;;;;;;;;;;;;;16.93;22.23;100765.31;5089799;28;19924;-69
2021/04/27 12:26:28;;;;;;;;;;;;;;;17.31;23.03;100754.78;5090420;28;19935;-69
2021/04/27 12:28:57;;;;;;;;;;;;;;;17.81;23.15;100763.94;5090112;28;19925;-69
2021/04/27 12:31:23;;;;;;;;;;;;;;;17.73;22.32;100755.69;5090143;28;20295;-65
2021/04/27 12:33:56;;;;;;;;;;;;;;;17.61;22.67;100752.44;5090329;28;19932;-67
2021/04/27 12:36:31;;;;;;;;;;;;;;;17.78;22.33;100745.03;5072764;28;19975;-70
2021/04/27 12:38:57;;;;;;;;;;;;;;;18.16;22.32;100750.91;5093656;28;20151;-71
2021/04/27 12:41:34;;;;;;;;;;;;;;;17.45;21.78;100739.56;5093515;28;20329;-70